createdAt,value
2022-12-18T00:00:42.535Z,102550.13
2022-12-18T00:01:34.804Z,102550.50
2022-12-18T00:02:23.053Z,102543.81
2022-12-18T00:03:09.677Z,102549.63
2022-12-18T00:03:57.175Z,102555.63
2022-12-18T00:04:43.946Z,102554.69
2022-12-18T00:05:30.416Z,102554.91
2022-12-18T00:06:17.756Z,102553.59
2022-12-18T00:07:04.426Z,102557.22
2022-12-18T00:07:51.087Z,102554.56
2022-12-18T00:08:37.501Z,102554.81
2022-12-18T00:09:24.799Z,102554.50
2022-12-18T00:10:11.444Z,102546.09
2022-12-18T00:11:11.943Z,102556.88
2022-12-18T00:11:59.457Z,102556.31
2022-12-18T00:12:46.047Z,102554.31
2022-12-18T00:13:32.780Z,102553.59
2022-12-18T00:14:19.326Z,102546.88
2022-12-18T00:15:06.398Z,102555.69
2022-12-18T00:15:53.135Z,102559.63
2022-12-18T00:16:47.486Z,102557.47
2022-12-18T00:17:34.121Z,102557.09
2022-12-18T00:18:20.894Z,102563.75
2022-12-18T00:19:08.387Z,102560.72
2022-12-18T00:19:54.856Z,102565.75
2022-12-18T00:20:41.371Z,102559.06
2022-12-18T00:21:32.839Z,102575.16
2022-12-18T00:22:19.451Z,102567.91
2022-12-18T00:23:07.521Z,102575.66
2022-12-18T00:23:54.153Z,102564.66
2022-12-18T00:24:40.865Z,102573.53
2022-12-18T00:25:27.525Z,102577.69
2022-12-18T00:26:17.976Z,102567.38
2022-12-18T00:27:04.612Z,102571.56
2022-12-18T00:27:51.377Z,102573.56
2022-12-18T00:28:38.277Z,102572.06
2022-12-18T00:29:24.811Z,102574.06
2022-12-18T00:30:12.046Z,102574.25
2022-12-18T00:31:07.277Z,102570.19
2022-12-18T00:31:53.941Z,102577.09
2022-12-18T00:32:40.658Z,102571.34
2022-12-18T00:33:27.359Z,102564.22
2022-12-18T00:34:14.530Z,102571.13
2022-12-18T00:35:01.057Z,102565.94
2022-12-18T00:35:47.819Z,102576.97
2022-12-18T00:36:36.216Z,102569.75
2022-12-18T00:37:22.966Z,102573.31
2022-12-18T00:38:11.212Z,102572.00
2022-12-18T00:38:59.675Z,102579.44
2022-12-18T00:39:46.138Z,102579.94
2022-12-18T00:40:32.816Z,102574.00
2022-12-18T00:41:42.080Z,102574.38
2022-12-18T00:42:47.283Z,102582.19
2022-12-18T00:43:33.978Z,102572.97
2022-12-18T00:44:20.849Z,102573.16
2022-12-18T00:45:12.326Z,102578.34
2022-12-18T00:45:59.811Z,102572.38
2022-12-18T00:46:49.055Z,102570.91
2022-12-18T00:47:35.587Z,102569.69
2022-12-18T00:48:23.177Z,102568.75
2022-12-18T00:49:10.348Z,102566.75
2022-12-18T00:49:57.077Z,102568.75
2022-12-18T00:50:43.587Z,102555.03
2022-12-18T00:51:30.653Z,102562.81
2022-12-18T00:52:17.156Z,102556.84
2022-12-18T00:53:03.735Z,102557.38
2022-12-18T00:53:50.430Z,102558.66
2022-12-18T00:54:37.045Z,102561.38
2022-12-18T00:55:23.652Z,102562.44
2022-12-18T00:56:10.577Z,102560.47
2022-12-18T00:56:57.372Z,102561.06
2022-12-18T00:57:44.245Z,102551.66
2022-12-18T00:58:32.151Z,102556.31
2022-12-18T00:59:24.832Z,102553.22
2022-12-18T01:00:15.030Z,102555.41
2022-12-18T01:01:02.195Z,102553.47
2022-12-18T01:01:48.994Z,102549.84
2022-12-18T01:02:35.901Z,102552.75
2022-12-18T01:03:22.848Z,102557.44
2022-12-18T01:04:09.849Z,102554.31
2022-12-18T01:04:57.569Z,102557.88
2022-12-18T01:05:44.375Z,102554.97
2022-12-18T01:06:32.015Z,102562.69
2022-12-18T01:07:18.544Z,102562.31
2022-12-18T01:08:05.511Z,102572.03
2022-12-18T01:08:52.035Z,102558.13
2022-12-18T01:09:38.827Z,102559.34
2022-12-18T01:10:26.669Z,102556.94
2022-12-18T01:11:18.751Z,102554.75
2022-12-18T01:12:05.705Z,102561.59
2022-12-18T01:12:52.776Z,102553.31
2022-12-18T01:13:41.061Z,102556.00
2022-12-18T01:14:27.906Z,102555.44
2022-12-18T01:15:15.857Z,102547.31
2022-12-18T01:16:03.354Z,102545.69
2022-12-18T01:16:50.155Z,102551.06
2022-12-18T01:17:36.704Z,102553.00
2022-12-18T01:18:23.240Z,102547.56
2022-12-18T01:19:11.092Z,102550.38
2022-12-18T01:19:57.797Z,102547.47
2022-12-18T01:20:44.373Z,102549.28
2022-12-18T01:21:30.855Z,102547.28
2022-12-18T01:22:17.408Z,102548.91
2022-12-18T01:23:07.309Z,102554.16
2022-12-18T01:23:56.673Z,102556.28
2022-12-18T01:24:43.705Z,102557.00
2022-12-18T01:25:30.368Z,102554.25
2022-12-18T01:26:17.235Z,102563.25
2022-12-18T01:27:04.338Z,102560.34
2022-12-18T01:27:50.850Z,102563.38
2022-12-18T01:28:38.957Z,102559.22
2022-12-18T01:29:27.637Z,102564.28
2022-12-18T01:30:14.667Z,102564.09
2022-12-18T01:31:19.595Z,102568.03
2022-12-18T01:32:07.325Z,102566.41
2022-12-18T01:32:54.274Z,102565.53
2022-12-18T01:33:41.570Z,102561.38
2022-12-18T01:34:28.346Z,102565.09
2022-12-18T01:35:14.935Z,102567.94
2022-12-18T01:36:01.571Z,102559.97
2022-12-18T01:36:48.040Z,102557.06
2022-12-18T01:37:34.490Z,102556.16
2022-12-18T01:38:20.998Z,102557.97
2022-12-18T01:39:11.921Z,102559.78
2022-12-18T01:40:01.664Z,102556.66
2022-12-18T01:40:48.384Z,102555.16
2022-12-18T01:41:55.568Z,102560.91
2022-12-18T01:42:42.058Z,102554.38
2022-12-18T01:43:53.449Z,102551.25
2022-12-18T01:44:52.702Z,102560.22
2022-12-18T01:45:39.585Z,102561.63
2022-12-18T01:46:28.139Z,102561.25
2022-12-18T01:47:21.692Z,102558.00
2022-12-18T01:48:09.985Z,102559.44
2022-12-18T01:49:02.748Z,102555.09
2022-12-18T01:49:49.491Z,102563.19
2022-12-18T01:50:42.692Z,102554.50
2022-12-18T01:51:31.949Z,102556.13
2022-12-18T01:52:21.389Z,102558.03
2022-12-18T01:53:11.074Z,102555.50
2022-12-18T01:53:59.947Z,102552.28
2022-12-18T01:54:49.633Z,102550.88
2022-12-18T01:55:52.783Z,102545.13
2022-12-18T01:56:39.273Z,102552.19
2022-12-18T01:57:27.307Z,102553.91
2022-12-18T01:58:14.506Z,102558.63
2022-12-18T01:59:10.409Z,102558.09
2022-12-18T02:00:03.923Z,102552.66
2022-12-18T02:01:07.098Z,102552.06
2022-12-18T02:01:54.001Z,102552.56
2022-12-18T02:02:43.821Z,102551.47
2022-12-18T02:03:30.483Z,102557.03
2022-12-18T02:04:25.626Z,102548.16
2022-12-18T02:05:17.734Z,102551.16
2022-12-18T02:06:11.889Z,102552.56
2022-12-18T02:07:21.165Z,102550.38
2022-12-18T02:08:22.230Z,102559.88
2022-12-18T02:09:18.038Z,102559.47
2022-12-18T02:10:25.263Z,102566.81
2022-12-18T02:11:23.372Z,102566.22
2022-12-18T02:12:31.738Z,102566.72
2022-12-18T02:13:51.772Z,102568.75
2022-12-18T02:14:56.282Z,102568.03
2022-12-18T02:15:51.905Z,102569.41
2022-12-18T02:16:55.449Z,102569.41
2022-12-18T02:17:55.286Z,102567.59
2022-12-18T02:18:49.643Z,102562.16
2022-12-18T02:19:48.413Z,102565.78
2022-12-18T02:20:41.340Z,102557.53
2022-12-18T02:21:36.792Z,102556.22
2022-12-18T02:22:54.056Z,102561.06
2022-12-18T02:24:05.684Z,102556.13
2022-12-18T02:25:06.917Z,102556.31
2022-12-18T02:26:08.008Z,102554.31
2022-12-18T02:27:00.870Z,102565.09
2022-12-18T02:27:53.066Z,102556.44
2022-12-18T02:29:16.763Z,102562.38
2022-12-18T02:30:06.675Z,102565.41
2022-12-18T02:31:00.691Z,102566.81
2022-12-18T02:31:58.393Z,102565.50
2022-12-18T02:32:52.082Z,102564.56
2022-12-18T02:33:42.903Z,102566.91
2022-12-18T02:34:35.860Z,102564.16
2022-12-18T02:35:28.457Z,102571.00
2022-12-18T02:36:21.637Z,102571.53
2022-12-18T02:37:14.905Z,102568.09
2022-12-18T02:38:05.174Z,102561.06
2022-12-18T02:38:57.885Z,102560.84
2022-12-18T02:39:48.839Z,102559.03
2022-12-18T02:40:37.971Z,102558.84
2022-12-18T02:41:25.889Z,102549.66
2022-12-18T02:42:13.587Z,102547.84
2022-12-18T02:43:18.723Z,102542.78
2022-12-18T02:44:13.420Z,102542.38
2022-12-18T02:45:00.493Z,102545.31
2022-12-18T02:45:58.784Z,102544.59
2022-12-18T02:46:52.403Z,102542.78
2022-12-18T02:47:44.941Z,102545.84
2022-12-18T02:48:36.011Z,102546.03
2022-12-18T02:49:31.328Z,102538.97
2022-12-18T02:50:34.855Z,102531.44
2022-12-18T02:51:37.495Z,102532.13
2022-12-18T02:52:37.289Z,102542.22
2022-12-18T02:53:38.391Z,102536.06
2022-12-18T02:54:39.188Z,102531.91
2022-12-18T02:55:35.308Z,102534.25
2022-12-18T02:56:38.455Z,102538.97
2022-12-18T02:57:40.024Z,102534.66
2022-12-18T02:58:50.296Z,102541.97
2022-12-18T03:00:15.603Z,102544.50
2022-12-18T03:01:28.415Z,102542.69
2022-12-18T03:02:45.276Z,102549.53
2022-12-18T03:03:50.034Z,102548.84
2022-12-18T03:04:53.232Z,102547.66
2022-12-18T03:05:53.508Z,102541.59
2022-12-18T03:06:48.187Z,102540.69
2022-12-18T03:07:51.588Z,102536.34
2022-12-18T03:08:45.388Z,102536.97
2022-12-18T03:09:44.489Z,102541.59
2022-12-18T03:10:36.499Z,102545.00
2022-12-18T03:11:43.625Z,102539.56
2022-12-18T03:12:39.546Z,102539.56
2022-12-18T03:13:34.373Z,102535.06
2022-12-18T03:14:24.355Z,102531.84
2022-12-18T03:16:00.753Z,102535.75
2022-12-18T03:16:54.350Z,102524.34
2022-12-18T03:17:49.845Z,102536.94
2022-12-18T03:18:54.816Z,102535.84
2022-12-18T03:19:48.780Z,102530.81
2022-12-18T03:20:38.068Z,102536.53
2022-12-18T03:21:34.800Z,102528.81
2022-12-18T03:22:25.756Z,102528.59
2022-12-18T03:23:22.337Z,102525.84
2022-12-18T03:24:12.720Z,102528.91
2022-12-18T03:25:05.565Z,102530.31
2022-12-18T03:26:00.805Z,102525.06
2022-12-18T03:26:55.836Z,102525.06
2022-12-18T03:27:49.987Z,102518.94
2022-12-18T03:28:44.915Z,102524.66
2022-12-18T03:29:36.840Z,102520.56
2022-12-18T03:30:29.850Z,102516.22
2022-12-18T03:31:18.986Z,102516.22
2022-12-18T03:32:16.634Z,102519.44
2022-12-18T03:33:25.036Z,102505.94
2022-12-18T03:34:24.525Z,102516.91
2022-12-18T03:35:17.838Z,102511.88
2022-12-18T03:36:05.340Z,102512.59
2022-12-18T03:36:53.018Z,102518.34
2022-12-18T03:37:40.607Z,102503.22
2022-12-18T03:38:28.052Z,102504.53
2022-12-18T03:39:14.870Z,102504.75
2022-12-18T03:40:07.417Z,102501.53
2022-12-18T03:41:13.623Z,102510.66
2022-12-18T03:42:41.325Z,102507.25
2022-12-18T03:43:38.692Z,102507.97
2022-12-18T03:44:40.811Z,102517.81
2022-12-18T03:45:36.709Z,102513.47
2022-12-18T03:46:39.875Z,102518.53
2022-12-18T03:47:40.563Z,102514.19
2022-12-18T03:48:45.219Z,102520.16
2022-12-18T03:50:12.475Z,102516.53
2022-12-18T03:51:15.769Z,102514.00
2022-12-18T03:52:19.224Z,102512.38
2022-12-18T03:53:27.054Z,102519.53
2022-12-18T03:54:15.736Z,102527.06
2022-12-18T03:55:12.836Z,102518.63
2022-12-18T03:56:04.944Z,102517.53
2022-12-18T03:57:04.775Z,102521.63
2022-12-18T03:57:54.210Z,102515.88
2022-12-18T03:58:44.291Z,102509.25
2022-12-18T03:59:40.163Z,102512.47
2022-12-18T04:00:31.561Z,102514.06
2022-12-18T04:01:33.841Z,102507.44
2022-12-18T04:02:24.593Z,102509.66
2022-12-18T04:03:14.612Z,102505.34
2022-12-18T04:04:10.803Z,102507.63
2022-12-18T04:05:03.537Z,102502.41
2022-12-18T04:05:55.012Z,102507.63
2022-12-18T04:06:44.669Z,102500.59
2022-12-18T04:07:34.008Z,102503.13
2022-12-18T04:08:22.845Z,102500.38
2022-12-18T04:09:20.463Z,102491.72
2022-12-18T04:10:10.135Z,102494.41
2022-12-18T04:10:58.708Z,102497.66
2022-12-18T04:11:47.622Z,102491.00
2022-12-18T04:12:35.753Z,102494.66
2022-12-18T04:13:24.349Z,102493.53
2022-12-18T04:14:17.587Z,102489.91
2022-12-18T04:15:06.721Z,102492.59
2022-12-18T04:15:53.779Z,102492.59
2022-12-18T04:16:43.182Z,102492.13
2022-12-18T04:17:33.126Z,102491.63
2022-12-18T04:18:19.657Z,102489.31
2022-12-18T04:19:07.000Z,102488.41
2022-12-18T04:19:59.014Z,102487.00
2022-12-18T04:20:45.687Z,102487.59
2022-12-18T04:21:32.175Z,102491.75
2022-12-18T04:22:18.771Z,102488.00
2022-12-18T04:23:08.618Z,102485.78
2022-12-18T04:23:55.407Z,102493.34
2022-12-18T04:24:43.110Z,102491.34
2022-12-18T04:25:36.962Z,102493.16
2022-12-18T04:26:30.844Z,102491.03
2022-12-18T04:27:31.862Z,102486.19
2022-12-18T04:28:19.681Z,102488.94
2022-12-18T04:29:06.584Z,102487.81
2022-12-18T04:29:53.434Z,102492.16
2022-12-18T04:30:39.958Z,102493.25
2022-12-18T04:31:27.425Z,102499.19
2022-12-18T04:32:14.082Z,102496.47
2022-12-18T04:33:03.226Z,102495.06
2022-12-18T04:33:51.149Z,102495.38
2022-12-18T04:34:37.805Z,102493.84
2022-12-18T04:35:25.397Z,102498.06
2022-12-18T04:36:13.343Z,102497.91
2022-12-18T04:37:00.591Z,102503.41
2022-12-18T04:37:47.420Z,102501.94
2022-12-18T04:38:34.040Z,102497.78
2022-12-18T04:39:26.617Z,102495.84
2022-12-18T04:40:17.260Z,102491.53
2022-12-18T04:41:06.691Z,102496.19
2022-12-18T04:41:53.902Z,102497.78
2022-12-18T04:42:41.294Z,102497.38
2022-12-18T04:43:28.106Z,102500.59
2022-12-18T04:44:14.752Z,102505.16
2022-12-18T04:45:01.574Z,102501.00
2022-12-18T04:45:48.007Z,102513.09
2022-12-18T04:46:34.616Z,102509.16
2022-12-18T04:47:21.289Z,102508.78
2022-12-18T04:48:07.821Z,102508.78
2022-12-18T04:48:54.470Z,102510.03
2022-12-18T04:49:40.955Z,102510.03
2022-12-18T04:50:28.659Z,102508.22
2022-12-18T04:51:15.355Z,102509.16
2022-12-18T04:52:01.955Z,102506.13
2022-12-18T04:52:48.563Z,102503.81
2022-12-18T04:53:35.181Z,102509.25
2022-12-18T04:54:21.628Z,102505.31
2022-12-18T04:55:08.711Z,102491.00
2022-12-18T04:56:13.039Z,102496.97
2022-12-18T04:56:59.533Z,102492.66
2022-12-18T04:57:46.760Z,102498.56
2022-12-18T04:58:33.282Z,102492.44
2022-12-18T04:59:19.741Z,102487.91
2022-12-18T05:00:06.956Z,102489.31
2022-12-18T05:00:54.567Z,102488.91
2022-12-18T05:01:41.329Z,102489.19
2022-12-18T05:02:28.167Z,102487.38
2022-12-18T05:03:14.653Z,102491.69
2022-12-18T05:04:02.120Z,102489.41
2022-12-18T05:04:48.750Z,102495.84
2022-12-18T05:05:36.064Z,102490.44
2022-12-18T05:06:22.501Z,102486.81
2022-12-18T05:07:09.191Z,102485.00
2022-12-18T05:07:55.892Z,102493.25
2022-12-18T05:08:42.389Z,102487.53
2022-12-18T05:09:28.878Z,102492.34
2022-12-18T05:10:15.377Z,102489.13
2022-12-18T05:11:04.735Z,102483.91
2022-12-18T05:11:52.044Z,102480.69
2022-12-18T05:12:58.580Z,102485.91
2022-12-18T05:13:46.634Z,102481.38
2022-12-18T05:14:33.268Z,102481.69
2022-12-18T05:15:19.903Z,102480.06
2022-12-18T05:16:07.329Z,102482.09
2022-12-18T05:16:57.964Z,102477.63
2022-12-18T05:17:47.510Z,102479.44
2022-12-18T05:18:35.160Z,102483.38
2022-12-18T05:19:21.710Z,102476.94
2022-12-18T05:20:08.782Z,102477.44
2022-12-18T05:20:55.839Z,102474.53
2022-12-18T05:21:42.270Z,102474.53
2022-12-18T05:22:29.191Z,102476.66
2022-12-18T05:23:15.592Z,102478.63
2022-12-18T05:24:02.042Z,102479.03
2022-12-18T05:24:48.486Z,102478.84
2022-12-18T05:25:34.939Z,102477.75
2022-12-18T05:26:21.577Z,102484.38
2022-12-18T05:27:08.085Z,102476.44
2022-12-18T05:27:55.149Z,102475.22
2022-12-18T05:28:41.644Z,102471.59
2022-12-18T05:29:28.378Z,102478.25
2022-12-18T05:30:16.455Z,102476.44
2022-12-18T05:31:05.434Z,102479.03
2022-12-18T05:31:52.209Z,102477.94
2022-12-18T05:32:39.219Z,102477.53
2022-12-18T05:33:27.784Z,102477.13
2022-12-18T05:34:14.216Z,102483.38
2022-12-18T05:35:01.124Z,102479.94
2022-12-18T05:35:55.859Z,102485.91
2022-12-18T05:36:42.680Z,102485.91
2022-12-18T05:37:29.445Z,102486.38
2022-12-18T05:38:16.093Z,102483.69
2022-12-18T05:39:02.829Z,102479.31
2022-12-18T05:39:49.291Z,102478.44
2022-12-18T05:40:35.989Z,102488.28
2022-12-18T05:41:22.763Z,102486.47
2022-12-18T05:42:09.267Z,102491.00
2022-12-18T05:42:55.688Z,102486.06
2022-12-18T05:43:42.928Z,102485.97
2022-12-18T05:44:29.589Z,102494.94
2022-12-18T05:45:16.234Z,102492.00
2022-12-18T05:46:08.284Z,102499.34
2022-12-18T05:46:55.063Z,102501.16
2022-12-18T05:47:41.756Z,102497.75
2022-12-18T05:48:28.347Z,102504.91
2022-12-18T05:49:14.831Z,102505.59
2022-12-18T05:50:01.575Z,102507.00
2022-12-18T05:50:49.978Z,102500.84
2022-12-18T05:51:36.663Z,102499.03
2022-12-18T05:52:23.663Z,102507.47
2022-12-18T05:53:10.433Z,102498.75
2022-12-18T05:53:56.916Z,102507.88
2022-12-18T05:54:43.480Z,102501.25
2022-12-18T05:55:30.266Z,102505.78
2022-12-18T05:56:20.731Z,102501.84
2022-12-18T05:57:07.352Z,102510.13
2022-12-18T05:57:53.955Z,102505.78
2022-12-18T05:58:40.636Z,102501.25
2022-12-18T05:59:27.454Z,102507.88
2022-12-18T06:00:14.516Z,102513.63
2022-12-18T06:01:19.409Z,102510.22
2022-12-18T06:02:06.144Z,102510.91
2022-12-18T06:02:52.915Z,102510.91
2022-12-18T06:03:40.125Z,102514.31
2022-12-18T06:04:29.490Z,102525.31
2022-12-18T06:05:16.463Z,102518.66
2022-12-18T06:06:03.225Z,102521.69
2022-12-18T06:06:49.834Z,102531.94
2022-12-18T06:07:36.260Z,102530.13
2022-12-18T06:08:22.747Z,102530.34
2022-12-18T06:09:10.463Z,102528.53
2022-12-18T06:09:56.972Z,102526.22
2022-12-18T06:10:43.420Z,102531.25
2022-12-18T06:11:30.036Z,102525.09
2022-12-18T06:12:16.588Z,102535.56
2022-12-18T06:13:04.223Z,102534.47
2022-12-18T06:13:57.878Z,102534.69
2022-12-18T06:14:44.765Z,102533.06
2022-12-18T06:15:31.422Z,102532.34
2022-12-18T06:16:18.209Z,102529.66
2022-12-18T06:17:04.786Z,102534.09
2022-12-18T06:17:51.389Z,102537.22
2022-12-18T06:18:37.875Z,102542.25
2022-12-18T06:19:24.660Z,102539.72
2022-12-18T06:20:11.113Z,102553.25
2022-12-18T06:20:58.493Z,102548.84
2022-12-18T06:21:45.168Z,102545.38
2022-12-18T06:22:33.074Z,102550.84
2022-12-18T06:23:19.736Z,102552.66
2022-12-18T06:24:06.855Z,102549.03
2022-12-18T06:24:53.491Z,102563.84
2022-12-18T06:25:40.387Z,102561.31
2022-12-18T06:26:28.566Z,102558.38
2022-12-18T06:27:15.828Z,102562.53
2022-12-18T06:28:02.443Z,102568.28
2022-12-18T06:28:49.083Z,102560.31
2022-12-18T06:29:35.672Z,102568.28
2022-12-18T06:30:22.171Z,102561.41
2022-12-18T06:31:10.262Z,102552.66
2022-12-18T06:31:56.923Z,102552.97
2022-12-18T06:32:43.624Z,102564.16
2022-12-18T06:33:31.144Z,102555.97
2022-12-18T06:34:17.734Z,102545.22
2022-12-18T06:35:04.861Z,102549.94
2022-12-18T06:35:52.776Z,102548.13
2022-12-18T06:36:40.804Z,102548.44
2022-12-18T06:37:27.307Z,102548.94
2022-12-18T06:38:13.910Z,102546.53
2022-12-18T06:39:00.615Z,102551.34
2022-12-18T06:39:47.105Z,102542.50
2022-12-18T06:40:34.023Z,102548.66
2022-12-18T06:41:22.844Z,102548.66
2022-12-18T06:42:09.359Z,102547.94
2022-12-18T06:42:56.035Z,102545.84
2022-12-18T06:43:43.148Z,102536.84
2022-12-18T06:44:29.859Z,102532.31
2022-12-18T06:45:16.803Z,102531.44
2022-12-18T06:46:05.318Z,102540.59
2022-12-18T06:46:51.924Z,102535.44
2022-12-18T06:47:38.520Z,102535.03
2022-12-18T06:48:24.985Z,102536.44
2022-12-18T06:49:11.567Z,102531.69
2022-12-18T06:49:58.181Z,102535.84
2022-12-18T06:50:44.632Z,102535.63
2022-12-18T06:51:31.092Z,102522.09
2022-12-18T06:52:17.612Z,102537.22
2022-12-18T06:53:04.071Z,102538.63
2022-12-18T06:53:50.845Z,102534.81
2022-12-18T06:54:37.505Z,102534.38
2022-12-18T06:55:24.111Z,102534.88
2022-12-18T06:56:11.215Z,102537.19
2022-12-18T06:56:58.414Z,102534.47
2022-12-18T06:57:44.883Z,102532.47
2022-12-18T06:58:33.306Z,102536.78
2022-12-18T06:59:19.920Z,102533.34
2022-12-18T07:00:08.010Z,102530.53
2022-12-18T07:01:02.432Z,102529.44
2022-12-18T07:01:49.122Z,102531.75
2022-12-18T07:02:35.826Z,102531.53
2022-12-18T07:03:22.357Z,102528.53
2022-12-18T07:04:08.784Z,102537.19
2022-12-18T07:04:55.492Z,102529.66
2022-12-18T07:05:42.162Z,102531.25
2022-12-18T07:06:28.576Z,102526.72
2022-12-18T07:07:15.221Z,102537.69
2022-12-18T07:08:02.248Z,102528.72
2022-12-18T07:08:49.910Z,102533.56
2022-12-18T07:09:36.507Z,102534.69
2022-12-18T07:10:23.025Z,102536.09
2022-12-18T07:11:10.082Z,102530.13
2022-12-18T07:11:56.678Z,102533.56
2022-12-18T07:12:44.541Z,102529.25
2022-12-18T07:13:31.121Z,102529.44
2022-12-18T07:14:17.653Z,102523.91
2022-12-18T07:15:05.007Z,102528.38
2022-12-18T07:15:51.800Z,102525.84
2022-12-18T07:16:38.402Z,102529.06
2022-12-18T07:17:25.158Z,102528.84
2022-12-18T07:18:11.894Z,102526.31
2022-12-18T07:18:58.339Z,102529.53
2022-12-18T07:19:45.207Z,102532.34
2022-12-18T07:20:31.774Z,102529.66
2022-12-18T07:21:20.332Z,102542.22
2022-12-18T07:22:06.855Z,102532.66
2022-12-18T07:22:56.372Z,102533.56
2022-12-18T07:23:43.331Z,102536.09
2022-12-18T07:24:29.913Z,102531.75
2022-12-18T07:25:16.639Z,102535.09
2022-12-18T07:26:09.748Z,102539.31
2022-12-18T07:26:56.310Z,102535.41
2022-12-18T07:27:42.952Z,102535.63
2022-12-18T07:28:29.462Z,102536.72
2022-12-18T07:29:16.099Z,102532.41
2022-12-18T07:30:02.626Z,102532.81
2022-12-18T07:30:49.449Z,102529.41
2022-12-18T07:31:36.140Z,102532.03
2022-12-18T07:32:22.696Z,102530.63
2022-12-18T07:33:11.584Z,102526.47
2022-12-18T07:33:58.201Z,102522.38
2022-12-18T07:34:46.459Z,102518.94
2022-12-18T07:35:34.899Z,102521.66
2022-12-18T07:36:21.341Z,102522.78
2022-12-18T07:37:09.074Z,102514.28
2022-12-18T07:37:57.310Z,102522.78
2022-12-18T07:38:44.095Z,102512.47
2022-12-18T07:39:30.611Z,102512.69
2022-12-18T07:40:17.181Z,102515.06
2022-12-18T07:41:07.245Z,102522.25
2022-12-18T07:42:12.416Z,102520.66
2022-12-18T07:43:00.203Z,102523.31
2022-12-18T07:43:47.509Z,102517.22
2022-12-18T07:44:35.766Z,102520.03
2022-12-18T07:45:22.406Z,102525.06
2022-12-18T07:46:12.326Z,102523.88
2022-12-18T07:47:00.093Z,102516.50
2022-12-18T07:47:46.498Z,102512.47
2022-12-18T07:48:34.443Z,102510.47
2022-12-18T07:49:21.077Z,102514.19
2022-12-18T07:50:08.285Z,102508.25
2022-12-18T07:50:54.801Z,102512.59
2022-12-18T07:51:41.300Z,102513.69
2022-12-18T07:52:27.866Z,102509.25
2022-12-18T07:53:15.333Z,102507.38
2022-12-18T07:54:01.790Z,102504.84
2022-12-18T07:54:50.819Z,102509.53
2022-12-18T07:55:54.937Z,102502.69
2022-12-18T07:56:44.030Z,102511.59
2022-12-18T07:58:38.784Z,102518.22
2022-12-18T07:59:25.378Z,102515.31
2022-12-18T08:00:13.187Z,102520.34
2022-12-18T08:01:19.898Z,102516.41
2022-12-18T08:02:08.429Z,102519.53
2022-12-18T08:02:55.504Z,102521.84
2022-12-18T08:03:42.898Z,102519.03
2022-12-18T08:04:29.894Z,102516.69
2022-12-18T08:05:16.607Z,102513.50
2022-12-18T08:06:05.820Z,102510.06
2022-12-18T08:06:52.859Z,102511.41
2022-12-18T08:07:59.422Z,102497.69
2022-12-18T08:08:46.175Z,102493.63
2022-12-18T08:09:32.598Z,102503.00
2022-12-18T08:10:20.636Z,102500.19
2022-12-18T08:11:07.232Z,102495.06
2022-12-18T08:11:53.735Z,102489.22
2022-12-18T08:12:42.968Z,102490.50
2022-12-18T08:13:29.731Z,102485.34
2022-12-18T08:14:16.184Z,102490.00
2022-12-18T08:15:03.113Z,102490.72
2022-12-18T08:16:04.792Z,102487.78
2022-12-18T08:16:51.390Z,102490.41
2022-12-18T08:17:38.119Z,102493.41
2022-12-18T08:18:24.708Z,102494.34
2022-12-18T08:19:11.198Z,102490.00
2022-12-18T08:19:57.656Z,102490.72
2022-12-18T08:20:45.484Z,102488.38
2022-12-18T08:21:32.546Z,102491.81
2022-12-18T08:22:19.333Z,102491.81
2022-12-18T08:23:05.877Z,102486.47
2022-12-18T08:23:54.362Z,102490.09
2022-12-18T08:24:40.955Z,102482.53
2022-12-18T08:25:27.618Z,102478.41
2022-12-18T08:26:15.281Z,102481.53
2022-12-18T08:28:10.609Z,102472.44
2022-12-18T08:28:58.773Z,102465.28
2022-12-18T08:29:45.613Z,102466.56
2022-12-18T08:30:32.331Z,102462.03
2022-12-18T08:31:20.081Z,102461.34
2022-12-18T08:32:08.073Z,102455.97
2022-12-18T08:32:54.963Z,102456.19
2022-12-18T08:33:42.430Z,102460.38
2022-12-18T08:34:29.884Z,102460.06
2022-12-18T08:35:18.878Z,102456.53
2022-12-18T08:36:07.051Z,102453.50
2022-12-18T08:36:58.345Z,102445.00
2022-12-18T08:37:44.812Z,102445.63
2022-12-18T08:38:32.845Z,102445.81
2022-12-18T08:39:19.444Z,102450.66
2022-12-18T08:40:06.747Z,102446.53
2022-12-18T08:41:05.897Z,102455.19
2022-12-18T08:42:11.013Z,102445.28
2022-12-18T08:43:15.959Z,102446.06
2022-12-18T08:44:21.102Z,102445.03
2022-12-18T08:45:08.263Z,102443.50
2022-12-18T08:45:54.965Z,102446.78
2022-12-18T08:46:44.430Z,102443.44
2022-12-18T08:47:31.030Z,102447.22
2022-12-18T08:48:22.047Z,102448.72
2022-12-18T08:49:11.118Z,102457.28
2022-12-18T08:49:57.708Z,102450.06
2022-12-18T08:50:44.308Z,102460.22
2022-12-18T08:51:31.072Z,102461.00
2022-12-18T08:52:17.707Z,102459.25
2022-12-18T08:53:04.225Z,102463.97
2022-12-18T08:53:50.702Z,102463.66
2022-12-18T08:54:37.159Z,102462.00
2022-12-18T08:55:24.002Z,102453.22
2022-12-18T08:56:10.670Z,102452.84
2022-12-18T08:56:57.261Z,102448.59
2022-12-18T08:57:43.885Z,102446.63
2022-12-18T08:58:31.174Z,102449.91
2022-12-18T08:59:20.051Z,102443.81
2022-12-18T09:00:07.422Z,102436.25
2022-12-18T09:00:54.228Z,102440.47
2022-12-18T09:01:40.791Z,102433.63
2022-12-18T09:02:27.840Z,102438.19
2022-12-18T09:03:16.045Z,102442.19
2022-12-18T09:04:02.989Z,102442.03
2022-12-18T09:04:55.425Z,102437.72
2022-12-18T09:05:48.438Z,102434.84
2022-12-18T09:06:35.230Z,102441.34
2022-12-18T09:07:22.693Z,102443.31
2022-12-18T09:08:09.885Z,102443.16
2022-12-18T09:08:57.910Z,102436.66
2022-12-18T09:09:44.454Z,102442.66
2022-12-18T09:10:31.121Z,102438.47
2022-12-18T09:11:24.503Z,102439.41
2022-12-18T09:12:11.175Z,102438.53
2022-12-18T09:12:57.676Z,102446.84
2022-12-18T09:13:44.342Z,102434.72
2022-12-18T09:14:31.128Z,102444.84
2022-12-18T09:15:17.768Z,102439.41
2022-12-18T09:16:04.744Z,102441.06
2022-12-18T09:16:51.765Z,102439.63
2022-12-18T09:17:38.312Z,102439.81
2022-12-18T09:18:26.010Z,102434.19
2022-12-18T09:19:12.731Z,102436.56
2022-12-18T09:19:59.218Z,102423.34
2022-12-18T09:20:46.403Z,102432.00
2022-12-18T09:21:43.379Z,102430.19
2022-12-18T09:22:32.899Z,102435.09
2022-12-18T09:23:19.858Z,102435.44
2022-12-18T09:24:08.813Z,102439.78
2022-12-18T09:24:55.879Z,102436.16
2022-12-18T09:25:42.671Z,102443.22
2022-12-18T09:26:30.196Z,102443.59
2022-12-18T09:27:16.671Z,102441.03
2022-12-18T09:28:07.085Z,102432.34
2022-12-18T09:28:54.658Z,102432.16
2022-12-18T09:29:41.412Z,102427.81
2022-12-18T09:30:27.842Z,102422.91
2022-12-18T09:31:15.021Z,102422.53
2022-12-18T09:32:01.523Z,102416.59
2022-12-18T09:32:48.070Z,102419.25
2022-12-18T09:33:36.806Z,102424.00